»·PEaware :: N333ZS KBUR-KSAN

N333ZS :: KBUR-KSAN

FLIGHT INFORMATION

Flight Status: Arrived
Operator: Privately registered:
United States
More flights under this callsign
Pilot: Judd H. (29974)
Aircraft: CESSNA 182 SKYLANE
(C182)
More flights by this aircraft type
Origin: KBUR Bob Hope-Burbank
United States
Destination: KSAN San Diego Intl-Lindbergh
United States
More flights between these airports :: More routes between these airports
Route: SLI OCN
File this flight plan on PilotEdge
Remarks:
Altitude:
(Current/Filed)
3,500ft
Speed:
(Current/Filed)
120kts
Departed: 26-Aug-20 05:21 PM
Arrived: 26-Aug-20 06:17 PM
Distance/Time
Traveled:
106nm/0:56
Distance/Time
To Go:
Arrived

Flight Plot

Page will automatically refresh every two minutes.

Flight plan parsing failed; only flown route is shown


Map Options




Map Legend


Flown Route
Filed Route
Departure Airport
Arrival Airport
Navaid (VOR, NDB)
Fix

Horizontal Profiles

Position Reports

Time Latitude Longitude Heading Altitude Ground
Speed
26-Aug-20 17:05 34.199911 -118.358661 268 724ft 0kts
26-Aug-20 17:06 34.199911 -118.358661 268 724ft 0kts
26-Aug-20 17:07 34.199911 -118.358661 268 724ft 0kts
26-Aug-20 17:08 34.199911 -118.358663 268 724ft 0kts
26-Aug-20 17:09 34.199911 -118.358665 268 724ft 0kts
26-Aug-20 17:10 34.199911 -118.358666 268 724ft 0kts
26-Aug-20 17:11 34.199911 -118.358667 268 724ft 0kts
26-Aug-20 17:12 34.199911 -118.358669 268 724ft 0kts
26-Aug-20 17:13 34.199911 -118.358670 268 724ft 0kts
26-Aug-20 17:14 34.199911 -118.358671 268 724ft 0kts
26-Aug-20 17:15 34.199911 -118.358672 268 724ft 0kts
26-Aug-20 17:16 34.199951 -118.358903 305 724ft 10kts
26-Aug-20 17:17 34.205866 -118.359788 345 724ft 25kts
26-Aug-20 17:18 34.211717 -118.361306 0 724ft 15kts
26-Aug-20 17:19 34.211163 -118.360101 170 724ft 1kts
26-Aug-20 17:20 34.192519 -118.350319 120 1181ft 111kts
26-Aug-20 17:21 34.179091 -118.311675 117 1568ft 127kts
26-Aug-20 17:22 34.164668 -118.272896 116 1863ft 127kts
26-Aug-20 17:23 34.151144 -118.234939 115 2322ft 121kts
26-Aug-20 17:24 34.137976 -118.197425 113 2730ft 123kts
26-Aug-20 17:25 34.125898 -118.157926 114 2970ft 130kts
26-Aug-20 17:26 34.111751 -118.115035 115 2953ft 136kts
26-Aug-20 17:27 34.098849 -118.077100 116 2951ft 122kts
26-Aug-20 17:28 34.083483 -118.039724 119 3125ft 132kts
26-Aug-20 17:29 34.056111 -118.011824 159 3250ft 136kts
26-Aug-20 17:30 34.019237 -117.993862 158 2944ft 140kts
26-Aug-20 17:31 33.983718 -117.975830 159 2879ft 137kts
26-Aug-20 17:32 33.948846 -117.958299 159 2860ft 135kts
26-Aug-20 17:33 33.913934 -117.941847 165 2857ft 134kts
26-Aug-20 17:34 33.878039 -117.932188 184 2903ft 129kts
26-Aug-20 17:35 33.846205 -117.942762 200 3400ft 114kts
26-Aug-20 17:36 33.820959 -117.963060 231 3906ft 110kts
26-Aug-20 17:37 33.797053 -117.988410 215 4167ft 124kts
26-Aug-20 17:38 33.768049 -118.012353 215 4261ft 130kts
26-Aug-20 17:39 33.737962 -118.037164 216 4258ft 131kts
26-Aug-20 17:40 33.708843 -118.060656 215 4608ft 115kts
26-Aug-20 17:41 33.682923 -118.080731 215 5298ft 109kts
26-Aug-20 17:42 33.654810 -118.070521 137 5566ft 143kts
26-Aug-20 17:43 33.631706 -118.028086 119 5270ft 156kts
26-Aug-20 17:44 33.615490 -117.983350 115 5465ft 146kts
26-Aug-20 17:45 33.594930 -117.940697 130 5457ft 147kts
26-Aug-20 17:46 33.569107 -117.902607 131 5455ft 147kts
26-Aug-20 17:47 33.543222 -117.864422 131 5455ft 147kts
26-Aug-20 17:48 33.517396 -117.826373 131 5460ft 147kts
26-Aug-20 17:49 33.491209 -117.788845 134 5468ft 146kts
26-Aug-20 17:50 33.464923 -117.751516 132 5473ft 146kts
26-Aug-20 17:51 33.438558 -117.713980 132 5475ft 147kts
26-Aug-20 17:52 33.412263 -117.676553 132 5475ft 147kts
26-Aug-20 17:53 33.385965 -117.639170 132 5475ft 147kts
26-Aug-20 17:54 33.359544 -117.601638 132 5475ft 147kts
26-Aug-20 17:55 33.333250 -117.564294 132 5476ft 147kts
26-Aug-20 17:56 33.306695 -117.527053 132 5479ft 147kts
26-Aug-20 17:57 33.279119 -117.490945 140 5485ft 145kts
26-Aug-20 17:58 33.248399 -117.459302 151 5482ft 144kts
26-Aug-20 17:59 33.212349 -117.437213 157 5247ft 149kts
26-Aug-20 18:00 33.173554 -117.419402 161 4746ft 149kts
26-Aug-20 18:01 33.135269 -117.402188 162 4227ft 145kts
26-Aug-20 18:02 33.097551 -117.385304 161 3731ft 144kts
26-Aug-20 18:03 33.061370 -117.367525 161 3361ft 138kts
26-Aug-20 18:04 33.030328 -117.349048 150 3481ft 132kts
26-Aug-20 18:05 32.996739 -117.329891 153 3478ft 134kts
26-Aug-20 18:06 32.962797 -117.310755 153 3476ft 135kts
26-Aug-20 18:07 32.928840 -117.291623 153 3480ft 134kts
26-Aug-20 18:08 32.893125 -117.271485 153 3090ft 145kts
26-Aug-20 18:09 32.856481 -117.250787 153 2690ft 145kts
26-Aug-20 18:10 32.819774 -117.232719 163 2418ft 144kts
26-Aug-20 18:11 32.783885 -117.218732 158 1945ft 130kts
26-Aug-20 18:12 32.757524 -117.194225 114 1464ft 113kts
26-Aug-20 18:13 32.745438 -117.162274 107 1147ft 102kts
26-Aug-20 18:15 32.728057 -117.148850 225 971ft 102kts
26-Aug-20 18:16 32.729937 -117.175098 289 134ft 80kts
26-Aug-20 18:17 32.733994 -117.188074 25 18ft 4kts
26-Aug-20 18:18 32.733098 -117.183183 107 18ft 25kts
26-Aug-20 18:19 32.733376 -117.178015 139 18ft 9kts

Navigation Log

Ident Type
Flight plan parsing failed, navigation log unavailable